sensor_id;sensor_type;location;lat;lon;timestamp;pressure;altitude;pressure_sealevel;temperature;humidity
55066;BME280;40964;42.114;24.220;2023-11-21T00:00:16;97621.25;;;7.65;66.90
55066;BME280;40964;42.114;24.220;2023-11-21T00:02:42;97622.84;;;7.60;66.85
55066;BME280;40964;42.114;24.220;2023-11-21T00:05:08;97618.84;;;7.51;67.61
55066;BME280;40964;42.114;24.220;2023-11-21T00:07:35;97613.38;;;7.46;67.24
55066;BME280;40964;42.114;24.220;2023-11-21T00:10:01;97621.25;;;7.52;66.71
55066;BME280;40964;42.114;24.220;2023-11-21T00:12:28;97606.97;;;7.48;66.35
55066;BME280;40964;42.114;24.220;2023-11-21T00:14:54;97611.56;;;7.53;66.69
55066;BME280;40964;42.114;24.220;2023-11-21T00:17:20;97614.81;;;7.48;67.35
55066;BME280;40964;42.114;24.220;2023-11-21T00:19:45;97615.41;;;7.44;67.74
55066;BME280;40964;42.114;24.220;2023-11-21T00:22:11;97609.56;;;7.42;68.11
55066;BME280;40964;42.114;24.220;2023-11-21T00:24:36;97611.56;;;7.33;67.78
55066;BME280;40964;42.114;24.220;2023-11-21T00:27:02;97618.00;;;7.24;68.31
55066;BME280;40964;42.114;24.220;2023-11-21T00:29:27;97609.75;;;7.14;68.57
55066;BME280;40964;42.114;24.220;2023-11-21T00:31:53;97615.97;;;7.13;69.08
55066;BME280;40964;42.114;24.220;2023-11-21T00:34:18;97590.81;;;6.98;68.76
55066;BME280;40964;42.114;24.220;2023-11-21T00:36:44;97614.97;;;7.14;68.84
55066;BME280;40964;42.114;24.220;2023-11-21T00:39:10;97616.38;;;7.16;68.84
55066;BME280;40964;42.114;24.220;2023-11-21T00:41:37;97616.97;;;7.18;69.12
55066;BME280;40964;42.114;24.220;2023-11-21T00:44:02;97582.16;;;6.98;68.84
55066;BME280;40964;42.114;24.220;2023-11-21T00:46:28;97611.75;;;7.18;68.74
55066;BME280;40964;42.114;24.220;2023-11-21T00:48:54;97609.13;;;7.18;68.77
55066;BME280;40964;42.114;24.220;2023-11-21T00:51:20;97607.53;;;7.17;68.61
55066;BME280;40964;42.114;24.220;2023-11-21T00:53:47;97600.88;;;7.15;68.94
55066;BME280;40964;42.114;24.220;2023-11-21T00:56:13;97593.84;;;7.02;68.80
55066;BME280;40964;42.114;24.220;2023-11-21T00:58:38;97598.03;;;6.96;69.17
55066;BME280;40964;42.114;24.220;2023-11-21T01:01:04;97610.88;;;6.85;69.89
55066;BME280;40964;42.114;24.220;2023-11-21T01:03:30;97606.66;;;6.77;70.51
55066;BME280;40964;42.114;24.220;2023-11-21T01:05:55;97613.06;;;6.74;70.60
55066;BME280;40964;42.114;24.220;2023-11-21T01:08:21;97614.69;;;6.75;70.32
55066;BME280;40964;42.114;24.220;2023-11-21T01:10:47;97620.69;;;6.69;70.75
55066;BME280;40964;42.114;24.220;2023-11-21T01:13:12;97606.63;;;6.70;70.68
55066;BME280;40964;42.114;24.220;2023-11-21T01:15:40;97612.25;;;6.67;70.92
55066;BME280;40964;42.114;24.220;2023-11-21T01:18:07;97606.22;;;6.67;70.82
55066;BME280;40964;42.114;24.220;2023-11-21T01:20:34;97601.34;;;6.57;70.81
55066;BME280;40964;42.114;24.220;2023-11-21T01:23:00;97611.81;;;6.57;71.66
55066;BME280;40964;42.114;24.220;2023-11-21T01:25:25;97605.56;;;6.58;71.33
55066;BME280;40964;42.114;24.220;2023-11-21T01:27:51;97598.16;;;6.62;71.38
55066;BME280;40964;42.114;24.220;2023-11-21T01:30:17;97598.56;;;6.65;71.07
55066;BME280;40964;42.114;24.220;2023-11-21T01:32:43;97598.34;;;6.60;71.20
55066;BME280;40964;42.114;24.220;2023-11-21T01:35:09;97593.72;;;6.62;71.49
55066;BME280;40964;42.114;24.220;2023-11-21T01:37:38;97593.94;;;6.67;71.03
55066;BME280;40964;42.114;24.220;2023-11-21T01:40:04;97596.97;;;6.71;70.57
55066;BME280;40964;42.114;24.220;2023-11-21T01:42:39;97595.75;;;6.67;70.62
55066;BME280;40964;42.114;24.220;2023-11-21T01:45:04;97596.94;;;6.64;71.04
55066;BME280;40964;42.114;24.220;2023-11-21T01:47:33;97590.28;;;6.55;71.37
55066;BME280;40964;42.114;24.220;2023-11-21T01:50:01;97584.66;;;6.51;71.67
55066;BME280;40964;42.114;24.220;2023-11-21T01:52:27;97581.84;;;6.53;71.38
55066;BME280;40964;42.114;24.220;2023-11-21T01:54:52;97576.00;;;6.51;71.14
55066;BME280;40964;42.114;24.220;2023-11-21T01:57:19;97571.56;;;6.45;71.38
55066;BME280;40964;42.114;24.220;2023-11-21T01:59:46;97560.09;;;6.46;71.36
55066;BME280;40964;42.114;24.220;2023-11-21T02:02:13;97557.47;;;6.46;71.49
55066;BME280;40964;42.114;24.220;2023-11-21T02:04:39;97558.50;;;6.45;71.62
55066;BME280;40964;42.114;24.220;2023-11-21T02:07:04;97557.09;;;6.42;71.54
55066;BME280;40964;42.114;24.220;2023-11-21T02:09:33;97557.47;;;6.39;71.68
55066;BME280;40964;42.114;24.220;2023-11-21T02:11:59;97553.84;;;6.34;71.99
55066;BME280;40964;42.114;24.220;2023-11-21T02:14:26;97563.25;;;6.28;73.08
55066;BME280;40964;42.114;24.220;2023-11-21T02:16:53;97556.16;;;6.15;73.09
55066;BME280;40964;42.114;24.220;2023-11-21T02:19:19;97567.44;;;6.22;73.49
55066;BME280;40964;42.114;24.220;2023-11-21T02:21:54;97557.78;;;6.16;72.92
55066;BME280;40964;42.114;24.220;2023-11-21T02:24:23;97563.97;;;6.09;73.22
55066;BME280;40964;42.114;24.220;2023-11-21T02:26:50;97560.50;;;6.02;73.37
55066;BME280;40964;42.114;24.220;2023-11-21T02:29:19;97556.38;;;5.86;74.12
55066;BME280;40964;42.114;24.220;2023-11-21T02:31:49;97568.25;;;5.88;74.79
55066;BME280;40964;42.114;24.220;2023-11-21T02:34:16;97563.78;;;5.82;73.85
55066;BME280;40964;42.114;24.220;2023-11-21T02:36:42;97575.25;;;5.88;74.13
55066;BME280;40964;42.114;24.220;2023-11-21T02:39:08;97575.81;;;5.83;74.48
55066;BME280;40964;42.114;24.220;2023-11-21T02:41:34;97579.63;;;5.81;73.92
55066;BME280;40964;42.114;24.220;2023-11-21T02:44:00;97589.47;;;5.79;74.25
55066;BME280;40964;42.114;24.220;2023-11-21T02:46:26;97583.97;;;5.67;74.61
55066;BME280;40964;42.114;24.220;2023-11-21T02:48:52;97590.75;;;5.61;75.42
55066;BME280;40964;42.114;24.220;2023-11-21T02:51:19;97569.63;;;5.56;75.47
55066;BME280;40964;42.114;24.220;2023-11-21T02:53:45;97573.00;;;5.50;75.70
55066;BME280;40964;42.114;24.220;2023-11-21T02:56:12;97562.78;;;5.49;76.73
55066;BME280;40964;42.114;24.220;2023-11-21T02:58:40;97564.75;;;5.47;76.54
55066;BME280;40964;42.114;24.220;2023-11-21T03:01:06;97563.53;;;5.43;76.45
55066;BME280;40964;42.114;24.220;2023-11-21T03:03:32;97565.94;;;5.44;77.00
55066;BME280;40964;42.114;24.220;2023-11-21T03:05:58;97568.28;;;5.39;77.27
55066;BME280;40964;42.114;24.220;2023-11-21T03:08:23;97566.53;;;5.39;77.42
55066;BME280;40964;42.114;24.220;2023-11-21T03:10:49;97575.09;;;5.33;76.89
55066;BME280;40964;42.114;24.220;2023-11-21T03:13:14;97569.81;;;5.27;77.06
55066;BME280;40964;42.114;24.220;2023-11-21T03:15:39;97575.75;;;5.21;78.03
55066;BME280;40964;42.114;24.220;2023-11-21T03:18:05;97568.59;;;5.23;78.61
55066;BME280;40964;42.114;24.220;2023-11-21T03:20:30;97573.16;;;5.21;78.78
55066;BME280;40964;42.114;24.220;2023-11-21T03:22:56;97568.13;;;5.19;79.18
55066;BME280;40964;42.114;24.220;2023-11-21T03:25:21;97572.34;;;5.20;79.86
55066;BME280;40964;42.114;24.220;2023-11-21T03:27:49;97575.53;;;5.16;79.88
55066;BME280;40964;42.114;24.220;2023-11-21T03:30:15;97572.19;;;5.22;80.71
55066;BME280;40964;42.114;24.220;2023-11-21T03:32:40;97576.81;;;5.26;80.53
55066;BME280;40964;42.114;24.220;2023-11-21T03:35:06;97582.28;;;5.31;79.96
55066;BME280;40964;42.114;24.220;2023-11-21T03:37:32;97593.22;;;5.41;79.89
55066;BME280;40964;42.114;24.220;2023-11-21T03:39:57;97604.25;;;5.44;80.02
55066;BME280;40964;42.114;24.220;2023-11-21T03:42:23;97585.50;;;5.33;80.51
55066;BME280;40964;42.114;24.220;2023-11-21T03:44:50;97596.00;;;5.40;80.91
55066;BME280;40964;42.114;24.220;2023-11-21T03:47:16;97590.41;;;5.43;80.55
55066;BME280;40964;42.114;24.220;2023-11-21T03:49:41;97582.00;;;5.48;79.88
55066;BME280;40964;42.114;24.220;2023-11-21T03:52:07;97579.59;;;5.46;79.73
55066;BME280;40964;42.114;24.220;2023-11-21T03:54:33;97580.66;;;5.52;79.67
55066;BME280;40964;42.114;24.220;2023-11-21T03:56:58;97572.63;;;5.53;79.96
55066;BME280;40964;42.114;24.220;2023-11-21T03:59:23;97570.75;;;5.47;79.76
55066;BME280;40964;42.114;24.220;2023-11-21T04:01:50;97579.38;;;5.48;79.35
55066;BME280;40964;42.114;24.220;2023-11-21T04:04:15;97572.22;;;5.50;79.24
55066;BME280;40964;42.114;24.220;2023-11-21T04:06:41;97581.44;;;5.52;78.97
55066;BME280;40964;42.114;24.220;2023-11-21T04:09:06;97576.47;;;5.57;79.36
55066;BME280;40964;42.114;24.220;2023-11-21T04:11:32;97580.69;;;5.58;79.78
55066;BME280;40964;42.114;24.220;2023-11-21T04:13:57;97577.09;;;5.59;79.31
55066;BME280;40964;42.114;24.220;2023-11-21T04:16:23;97593.75;;;5.58;79.68
55066;BME280;40964;42.114;24.220;2023-11-21T04:18:49;97598.31;;;5.56;79.91
55066;BME280;40964;42.114;24.220;2023-11-21T04:21:14;97597.50;;;5.56;79.82
55066;BME280;40964;42.114;24.220;2023-11-21T04:23:40;97603.59;;;5.63;80.09
55066;BME280;40964;42.114;24.220;2023-11-21T04:26:05;97590.50;;;5.56;80.36
55066;BME280;40964;42.114;24.220;2023-11-21T04:28:31;97590.31;;;5.58;80.42
55066;BME280;40964;42.114;24.220;2023-11-21T04:30:57;97589.53;;;5.57;79.97
55066;BME280;40964;42.114;24.220;2023-11-21T04:33:22;97590.50;;;5.56;79.71
55066;BME280;40964;42.114;24.220;2023-11-21T04:35:48;97607.34;;;5.54;80.47
55066;BME280;40964;42.114;24.220;2023-11-21T04:38:14;97610.75;;;5.54;81.01
55066;BME280;40964;42.114;24.220;2023-11-21T04:40:39;97611.19;;;5.58;80.77
55066;BME280;40964;42.114;24.220;2023-11-21T04:43:05;97614.41;;;5.60;79.93
55066;BME280;40964;42.114;24.220;2023-11-21T04:45:30;97615.34;;;5.52;80.83
55066;BME280;40964;42.114;24.220;2023-11-21T04:47:55;97607.84;;;5.43;81.19
55066;BME280;40964;42.114;24.220;2023-11-21T04:50:21;97615.50;;;5.44;80.62
55066;BME280;40964;42.114;24.220;2023-11-21T04:52:47;97613.25;;;5.41;79.99
55066;BME280;40964;42.114;24.220;2023-11-21T04:55:12;97612.25;;;5.42;80.03
55066;BME280;40964;42.114;24.220;2023-11-21T04:57:38;97609.38;;;5.30;80.25
55066;BME280;40964;42.114;24.220;2023-11-21T05:00:08;97617.66;;;5.19;80.59
55066;BME280;40964;42.114;24.220;2023-11-21T05:02:34;97614.50;;;5.24;80.09
55066;BME280;40964;42.114;24.220;2023-11-21T05:05:00;97614.88;;;5.21;79.90
55066;BME280;40964;42.114;24.220;2023-11-21T05:07:26;97607.63;;;5.16;79.39
55066;BME280;40964;42.114;24.220;2023-11-21T05:09:55;97608.81;;;5.13;79.26
55066;BME280;40964;42.114;24.220;2023-11-21T05:12:22;97612.16;;;5.07;79.35
55066;BME280;40964;42.114;24.220;2023-11-21T05:14:49;97620.88;;;5.00;79.37
55066;BME280;40964;42.114;24.220;2023-11-21T05:17:14;97623.28;;;4.80;80.65
55066;BME280;40964;42.114;24.220;2023-11-21T05:19:40;97623.13;;;4.67;81.58
55066;BME280;40964;42.114;24.220;2023-11-21T05:22:05;97614.91;;;4.48;81.93
55066;BME280;40964;42.114;24.220;2023-11-21T05:24:31;97621.28;;;4.46;82.84
55066;BME280;40964;42.114;24.220;2023-11-21T05:26:57;97621.66;;;4.28;84.07
55066;BME280;40964;42.114;24.220;2023-11-21T05:29:23;97627.06;;;4.26;83.42
55066;BME280;40964;42.114;24.220;2023-11-21T05:31:49;97628.56;;;4.21;84.20
55066;BME280;40964;42.114;24.220;2023-11-21T05:34:15;97627.50;;;4.15;84.13
55066;BME280;40964;42.114;24.220;2023-11-21T05:36:43;97613.84;;;4.13;84.43
55066;BME280;40964;42.114;24.220;2023-11-21T05:39:08;97623.34;;;4.21;84.58
55066;BME280;40964;42.114;24.220;2023-11-21T05:41:35;97626.97;;;4.20;84.65
55066;BME280;40964;42.114;24.220;2023-11-21T05:44:00;97629.22;;;4.23;85.23
55066;BME280;40964;42.114;24.220;2023-11-21T05:46:26;97620.13;;;4.19;85.68
55066;BME280;40964;42.114;24.220;2023-11-21T05:48:51;97631.00;;;4.22;85.31
55066;BME280;40964;42.114;24.220;2023-11-21T05:51:17;97616.91;;;4.17;86.00
55066;BME280;40964;42.114;24.220;2023-11-21T05:53:42;97635.47;;;4.28;86.26
55066;BME280;40964;42.114;24.220;2023-11-21T05:56:08;97637.38;;;4.35;87.24
55066;BME280;40964;42.114;24.220;2023-11-21T05:58:33;97635.66;;;4.42;87.83
55066;BME280;40964;42.114;24.220;2023-11-21T06:00:59;97635.00;;;4.54;86.85
55066;BME280;40964;42.114;24.220;2023-11-21T06:03:24;97643.09;;;4.60;87.38
55066;BME280;40964;42.114;24.220;2023-11-21T06:05:50;97625.91;;;4.65;87.35
55066;BME280;40964;42.114;24.220;2023-11-21T06:08:15;97648.16;;;4.82;87.94
55066;BME280;40964;42.114;24.220;2023-11-21T06:10:42;97646.34;;;4.98;87.59
55066;BME280;40964;42.114;24.220;2023-11-21T06:13:09;97632.56;;;5.04;87.65
55066;BME280;40964;42.114;24.220;2023-11-21T06:15:36;97635.09;;;5.19;87.47
55066;BME280;40964;42.114;24.220;2023-11-21T06:18:01;97645.03;;;5.30;87.43
55066;BME280;40964;42.114;24.220;2023-11-21T06:20:27;97642.94;;;5.40;86.58
55066;BME280;40964;42.114;24.220;2023-11-21T06:22:53;97638.22;;;5.50;86.28
55066;BME280;40964;42.114;24.220;2023-11-21T06:25:19;97646.81;;;5.72;84.94
55066;BME280;40964;42.114;24.220;2023-11-21T06:27:47;97635.84;;;5.83;84.33
55066;BME280;40964;42.114;24.220;2023-11-21T06:30:13;97646.22;;;5.98;83.19
55066;BME280;40964;42.114;24.220;2023-11-21T06:32:41;97635.41;;;6.01;82.65
55066;BME280;40964;42.114;24.220;2023-11-21T06:35:07;97637.72;;;6.17;82.40
55066;BME280;40964;42.114;24.220;2023-11-21T06:37:35;97643.78;;;6.24;82.88
55066;BME280;40964;42.114;24.220;2023-11-21T06:40:01;97636.81;;;6.32;82.22
55066;BME280;40964;42.114;24.220;2023-11-21T06:42:29;97637.66;;;6.45;81.32
55066;BME280;40964;42.114;24.220;2023-11-21T06:44:55;97637.28;;;6.48;81.37
55066;BME280;40964;42.114;24.220;2023-11-21T06:47:24;97626.63;;;6.50;80.77
55066;BME280;40964;42.114;24.220;2023-11-21T06:49:50;97633.56;;;6.71;79.10
55066;BME280;40964;42.114;24.220;2023-11-21T06:52:16;97634.38;;;6.78;77.73
55066;BME280;40964;42.114;24.220;2023-11-21T06:54:42;97641.22;;;6.79;77.93
55066;BME280;40964;42.114;24.220;2023-11-21T06:57:07;97638.03;;;6.90;77.98
55066;BME280;40964;42.114;24.220;2023-11-21T06:59:33;97626.78;;;6.90;77.19
55066;BME280;40964;42.114;24.220;2023-11-21T07:01:58;97642.66;;;6.88;77.29
55066;BME280;40964;42.114;24.220;2023-11-21T07:04:24;97630.97;;;6.77;78.43
55066;BME280;40964;42.114;24.220;2023-11-21T07:06:51;97648.72;;;6.95;79.64
55066;BME280;40964;42.114;24.220;2023-11-21T07:09:17;97651.53;;;6.94;79.94
55066;BME280;40964;42.114;24.220;2023-11-21T07:11:42;97654.31;;;6.86;81.30
55066;BME280;40964;42.114;24.220;2023-11-21T07:14:08;97656.53;;;6.89;79.53
55066;BME280;40964;42.114;24.220;2023-11-21T07:16:35;97658.16;;;6.96;79.05
55066;BME280;40964;42.114;24.220;2023-11-21T07:19:05;97657.94;;;6.91;80.16
55066;BME280;40964;42.114;24.220;2023-11-21T07:21:35;97656.75;;;7.00;78.54
55066;BME280;40964;42.114;24.220;2023-11-21T07:24:04;97656.59;;;7.08;78.54
55066;BME280;40964;42.114;24.220;2023-11-21T07:26:32;97665.25;;;7.16;78.60
55066;BME280;40964;42.114;24.220;2023-11-21T07:28:58;97666.50;;;7.26;76.50
55066;BME280;40964;42.114;24.220;2023-11-21T07:31:24;97657.63;;;7.27;75.98
55066;BME280;40964;42.114;24.220;2023-11-21T07:33:50;97640.34;;;7.33;74.82
55066;BME280;40964;42.114;24.220;2023-11-21T07:36:16;97654.88;;;7.49;75.01
55066;BME280;40964;42.114;24.220;2023-11-21T07:38:44;97655.84;;;7.54;74.15
55066;BME280;40964;42.114;24.220;2023-11-21T07:41:10;97660.31;;;7.60;73.50
55066;BME280;40964;42.114;24.220;2023-11-21T07:43:36;97657.91;;;7.65;72.20
55066;BME280;40964;42.114;24.220;2023-11-21T07:46:02;97648.63;;;7.76;72.58
55066;BME280;40964;42.114;24.220;2023-11-21T07:48:32;97654.25;;;7.86;72.18
55066;BME280;40964;42.114;24.220;2023-11-21T07:50:58;97651.66;;;7.93;72.12
55066;BME280;40964;42.114;24.220;2023-11-21T07:53:27;97651.03;;;7.97;71.43
55066;BME280;40964;42.114;24.220;2023-11-21T07:56:05;97658.28;;;8.09;72.08
55066;BME280;40964;42.114;24.220;2023-11-21T07:58:31;97648.63;;;8.09;71.37
55066;BME280;40964;42.114;24.220;2023-11-21T08:00:59;97649.22;;;8.18;71.15
55066;BME280;40964;42.114;24.220;2023-11-21T08:03:25;97650.59;;;8.20;71.17
55066;BME280;40964;42.114;24.220;2023-11-21T08:05:52;97648.38;;;8.24;69.86
55066;BME280;40964;42.114;24.220;2023-11-21T08:08:17;97648.16;;;8.32;70.27
55066;BME280;40964;42.114;24.220;2023-11-21T08:10:44;97650.59;;;8.27;73.30
55066;BME280;40964;42.114;24.220;2023-11-21T08:13:13;97644.53;;;8.26;74.99
55066;BME280;40964;42.114;24.220;2023-11-21T08:15:41;97655.25;;;8.18;76.10
55066;BME280;40964;42.114;24.220;2023-11-21T08:18:10;97657.25;;;8.30;76.63
55066;BME280;40964;42.114;24.220;2023-11-21T08:20:35;97653.81;;;8.42;75.76
55066;BME280;40964;42.114;24.220;2023-11-21T08:23:01;97660.03;;;8.48;75.50
55066;BME280;40964;42.114;24.220;2023-11-21T08:25:27;97655.97;;;8.59;75.55
55066;BME280;40964;42.114;24.220;2023-11-21T08:27:53;97656.56;;;8.67;74.80
55066;BME280;40964;42.114;24.220;2023-11-21T08:30:19;97651.69;;;8.71;75.43
55066;BME280;40964;42.114;24.220;2023-11-21T08:32:46;97651.66;;;8.77;76.81
55066;BME280;40964;42.114;24.220;2023-11-21T08:35:12;97646.22;;;8.79;76.89
55066;BME280;40964;42.114;24.220;2023-11-21T08:37:37;97645.19;;;8.80;76.44
55066;BME280;40964;42.114;24.220;2023-11-21T08:40:05;97641.88;;;8.98;75.15
55066;BME280;40964;42.114;24.220;2023-11-21T08:42:35;97627.59;;;8.94;75.77
55066;BME280;40964;42.114;24.220;2023-11-21T08:45:00;97640.69;;;9.00;75.70
55066;BME280;40964;42.114;24.220;2023-11-21T08:47:26;97632.09;;;9.18;74.19
55066;BME280;40964;42.114;24.220;2023-11-21T08:49:52;97635.03;;;9.35;74.51
55066;BME280;40964;42.114;24.220;2023-11-21T08:52:18;97617.78;;;9.46;73.38
55066;BME280;40964;42.114;24.220;2023-11-21T08:54:46;97608.25;;;9.76;70.59
55066;BME280;40964;42.114;24.220;2023-11-21T08:57:11;97614.28;;;10.02;70.07
55066;BME280;40964;42.114;24.220;2023-11-21T08:59:36;97605.63;;;10.19;71.20
55066;BME280;40964;42.114;24.220;2023-11-21T09:02:02;97611.31;;;10.16;68.88
55066;BME280;40964;42.114;24.220;2023-11-21T09:04:27;97602.16;;;10.26;71.92
55066;BME280;40964;42.114;24.220;2023-11-21T09:06:53;97608.25;;;10.19;71.59
55066;BME280;40964;42.114;24.220;2023-11-21T09:09:18;97592.69;;;10.18;70.57
55066;BME280;40964;42.114;24.220;2023-11-21T09:11:45;97607.88;;;10.16;71.62
55066;BME280;40964;42.114;24.220;2023-11-21T09:14:11;97604.28;;;10.10;71.81
55066;BME280;40964;42.114;24.220;2023-11-21T09:16:38;97586.34;;;10.07;71.45
55066;BME280;40964;42.114;24.220;2023-11-21T09:19:04;97584.78;;;10.25;71.12
55066;BME280;40964;42.114;24.220;2023-11-21T09:21:30;97581.00;;;10.50;69.21
55066;BME280;40964;42.114;24.220;2023-11-21T09:23:56;97571.94;;;10.65;65.76
55066;BME280;40964;42.114;24.220;2023-11-21T09:26:21;97572.19;;;10.63;64.58
55066;BME280;40964;42.114;24.220;2023-11-21T09:28:47;97571.31;;;10.69;63.89
55066;BME280;40964;42.114;24.220;2023-11-21T09:31:13;97573.81;;;10.76;62.84
55066;BME280;40964;42.114;24.220;2023-11-21T09:33:43;97570.06;;;10.54;61.73
55066;BME280;40964;42.114;24.220;2023-11-21T09:36:12;97572.94;;;10.52;62.33
55066;BME280;40964;42.114;24.220;2023-11-21T09:38:41;97558.72;;;10.71;63.79
55066;BME280;40964;42.114;24.220;2023-11-21T09:41:19;97566.56;;;10.90;63.72
55066;BME280;40964;42.114;24.220;2023-11-21T09:43:47;97544.84;;;10.94;62.18
55066;BME280;40964;42.114;24.220;2023-11-21T09:46:13;97531.13;;;11.04;60.75
55066;BME280;40964;42.114;24.220;2023-11-21T09:48:47;97540.56;;;11.23;59.90
55066;BME280;40964;42.114;24.220;2023-11-21T09:51:16;97538.19;;;11.45;59.19
55066;BME280;40964;42.114;24.220;2023-11-21T09:53:49;97545.97;;;11.75;59.51
55066;BME280;40964;42.114;24.220;2023-11-21T09:56:17;97530.31;;;11.80;55.31
55066;BME280;40964;42.114;24.220;2023-11-21T09:58:51;97544.03;;;12.06;56.20
55066;BME280;40964;42.114;24.220;2023-11-21T10:01:18;97543.44;;;12.15;54.82
55066;BME280;40964;42.114;24.220;2023-11-21T10:03:44;97506.00;;;11.78;56.42
55066;BME280;40964;42.114;24.220;2023-11-21T10:06:13;97538.19;;;11.92;56.60
55066;BME280;40964;42.114;24.220;2023-11-21T10:08:39;97538.31;;;11.85;56.00
55066;BME280;40964;42.114;24.220;2023-11-21T10:11:06;97534.56;;;11.81;56.28
55066;BME280;40964;42.114;24.220;2023-11-21T10:13:37;97518.75;;;11.81;55.94
55066;BME280;40964;42.114;24.220;2023-11-21T10:16:04;97517.34;;;11.79;56.73
55066;BME280;40964;42.114;24.220;2023-11-21T10:18:32;97519.53;;;11.70;56.48
55066;BME280;40964;42.114;24.220;2023-11-21T10:20:59;97515.94;;;11.76;57.09
55066;BME280;40964;42.114;24.220;2023-11-21T10:23:26;97500.50;;;11.91;57.09
55066;BME280;40964;42.114;24.220;2023-11-21T10:25:52;97507.13;;;12.06;54.73
55066;BME280;40964;42.114;24.220;2023-11-21T10:28:18;97506.25;;;12.29;54.37
55066;BME280;40964;42.114;24.220;2023-11-21T10:30:44;97507.53;;;12.26;55.96
55066;BME280;40964;42.114;24.220;2023-11-21T10:33:09;97503.53;;;12.24;54.03
55066;BME280;40964;42.114;24.220;2023-11-21T10:38:08;97498.53;;;12.10;55.12
55066;BME280;40964;42.114;24.220;2023-11-21T10:40:38;97485.69;;;12.02;56.24
55066;BME280;40964;42.114;24.220;2023-11-21T10:43:08;97486.66;;;11.96;56.00
55066;BME280;40964;42.114;24.220;2023-11-21T10:45:35;97481.81;;;12.05;55.77
55066;BME280;40964;42.114;24.220;2023-11-21T10:48:05;97467.31;;;12.19;55.15
55066;BME280;40964;42.114;24.220;2023-11-21T10:50:33;97458.00;;;12.28;54.29
55066;BME280;40964;42.114;24.220;2023-11-21T10:53:01;97446.09;;;12.26;54.21
55066;BME280;40964;42.114;24.220;2023-11-21T10:55:27;97429.13;;;12.21;55.01
55066;BME280;40964;42.114;24.220;2023-11-21T10:57:53;97402.25;;;12.36;54.91
55066;BME280;40964;42.114;24.220;2023-11-21T11:00:19;97386.56;;;12.30;55.28
55066;BME280;40964;42.114;24.220;2023-11-21T11:02:51;97373.97;;;12.32;56.02
55066;BME280;40964;42.114;24.220;2023-11-21T11:05:20;97374.56;;;12.22;56.16
55066;BME280;40964;42.114;24.220;2023-11-21T11:07:48;97382.72;;;11.92;56.65
55066;BME280;40964;42.114;24.220;2023-11-21T11:10:19;97372.94;;;11.64;57.56
55066;BME280;40964;42.114;24.220;2023-11-21T11:12:48;97378.00;;;11.54;57.54
55066;BME280;40964;42.114;24.220;2023-11-21T11:15:16;97371.72;;;11.43;58.27
55066;BME280;40964;42.114;24.220;2023-11-21T11:17:42;97366.09;;;11.40;58.21
55066;BME280;40964;42.114;24.220;2023-11-21T11:20:13;97365.63;;;11.54;58.39
55066;BME280;40964;42.114;24.220;2023-11-21T11:25:28;97371.97;;;11.42;58.00
55066;BME280;40964;42.114;24.220;2023-11-21T11:28:07;97374.94;;;11.22;58.92
55066;BME280;40964;42.114;24.220;2023-11-21T11:33:14;97359.84;;;11.17;58.31
55066;BME280;40964;42.114;24.220;2023-11-21T11:35:54;97342.31;;;11.23;60.39
55066;BME280;40964;42.114;24.220;2023-11-21T11:38:22;97362.31;;;11.47;58.67
55066;BME280;40964;42.114;24.220;2023-11-21T11:40:52;97356.00;;;11.48;57.78
55066;BME280;40964;42.114;24.220;2023-11-21T11:43:27;97358.72;;;11.65;58.28
55066;BME280;40964;42.114;24.220;2023-11-21T11:45:57;97374.63;;;11.82;57.76
55066;BME280;40964;42.114;24.220;2023-11-21T11:48:24;97379.78;;;11.88;57.76
55066;BME280;40964;42.114;24.220;2023-11-21T11:51:02;97378.75;;;11.78;57.69
55066;BME280;40964;42.114;24.220;2023-11-21T11:53:33;97371.91;;;11.65;58.04
55066;BME280;40964;42.114;24.220;2023-11-21T11:58:49;97371.94;;;11.53;59.79
55066;BME280;40964;42.114;24.220;2023-11-21T12:01:19;97391.41;;;11.52;59.11
55066;BME280;40964;42.114;24.220;2023-11-21T12:06:40;97401.44;;;11.67;60.86
55066;BME280;40964;42.114;24.220;2023-11-21T12:09:06;97391.69;;;11.79;58.63
55066;BME280;40964;42.114;24.220;2023-11-21T12:11:32;97376.34;;;11.88;59.13
55066;BME280;40964;42.114;24.220;2023-11-21T12:14:01;97389.69;;;11.98;60.15
55066;BME280;40964;42.114;24.220;2023-11-21T12:16:27;97393.63;;;12.12;58.02
55066;BME280;40964;42.114;24.220;2023-11-21T12:18:53;97379.44;;;12.13;57.19
55066;BME280;40964;42.114;24.220;2023-11-21T12:21:19;97362.38;;;12.33;57.71
55066;BME280;40964;42.114;24.220;2023-11-21T12:23:45;97350.56;;;12.52;57.65
55066;BME280;40964;42.114;24.220;2023-11-21T12:26:13;97352.06;;;12.65;56.66
55066;BME280;40964;42.114;24.220;2023-11-21T12:28:39;97347.28;;;12.78;57.69
55066;BME280;40964;42.114;24.220;2023-11-21T12:31:05;97346.00;;;12.81;56.11
55066;BME280;40964;42.114;24.220;2023-11-21T12:33:32;97332.00;;;12.81;56.14
55066;BME280;40964;42.114;24.220;2023-11-21T12:35:58;97330.25;;;12.86;55.48
55066;BME280;40964;42.114;24.220;2023-11-21T12:38:24;97321.69;;;12.96;56.63
55066;BME280;40964;42.114;24.220;2023-11-21T12:40:50;97312.22;;;13.00;56.45
55066;BME280;40964;42.114;24.220;2023-11-21T12:43:16;97308.22;;;12.97;57.61
55066;BME280;40964;42.114;24.220;2023-11-21T12:45:43;97319.34;;;12.99;56.15
55066;BME280;40964;42.114;24.220;2023-11-21T12:48:09;97334.28;;;13.11;56.49
55066;BME280;40964;42.114;24.220;2023-11-21T12:50:37;97335.06;;;13.11;56.32
55066;BME280;40964;42.114;24.220;2023-11-21T12:53:05;97343.03;;;12.94;55.13
55066;BME280;40964;42.114;24.220;2023-11-21T12:55:35;97333.09;;;12.85;55.76
55066;BME280;40964;42.114;24.220;2023-11-21T12:58:03;97331.25;;;13.02;56.01
55066;BME280;40964;42.114;24.220;2023-11-21T13:00:48;97329.41;;;13.19;55.06
55066;BME280;40964;42.114;24.220;2023-11-21T13:03:15;97331.81;;;13.04;55.06
55066;BME280;40964;42.114;24.220;2023-11-21T13:05:45;97321.94;;;13.33;54.64
55066;BME280;40964;42.114;24.220;2023-11-21T13:08:12;97323.09;;;13.42;54.09